createdAt,value
2023-02-23T00:02:14.436Z,100502.03
2023-02-23T00:07:20.390Z,100503.56
2023-02-23T00:12:24.357Z,100502.56
2023-02-23T00:17:27.097Z,100500.22
2023-02-23T00:22:29.871Z,100494.63
2023-02-23T00:27:32.740Z,100483.53
2023-02-23T00:32:35.626Z,100480.91
2023-02-23T00:37:38.356Z,100425.50
2023-02-23T00:42:41.261Z,100469.69
2023-02-23T00:47:44.998Z,100462.22
2023-02-23T00:52:49.286Z,100451.97
2023-02-23T00:57:51.894Z,100455.97
2023-02-23T01:02:54.612Z,100490.53
2023-02-23T01:07:57.282Z,100475.03
2023-02-23T01:13:00.036Z,100503.88
2023-02-23T01:18:02.897Z,100492.03
2023-02-23T01:23:07.793Z,100507.41
2023-02-23T01:28:11.709Z,100514.06
2023-02-23T01:33:14.423Z,100508.66
2023-02-23T01:38:17.098Z,100508.31
2023-02-23T01:43:26.356Z,100498.25
2023-02-23T01:48:36.917Z,100499.44
2023-02-23T01:53:43.660Z,100504.25
2023-02-23T01:58:48.168Z,100483.22
2023-02-23T02:03:57.636Z,100481.13
2023-02-23T02:09:06.984Z,100478.28
2023-02-23T02:14:13.569Z,100467.25
2023-02-23T02:19:41.824Z,100455.28
2023-02-23T02:25:02.814Z,100436.94
2023-02-23T02:30:16.140Z,100419.59
2023-02-23T02:35:40.242Z,100418.19
2023-02-23T02:40:53.675Z,100423.81
2023-02-23T02:46:02.701Z,100424.28
2023-02-23T02:51:32.180Z,100424.13
2023-02-23T02:56:44.746Z,100443.56
2023-02-23T03:02:05.817Z,100445.03
2023-02-23T03:07:51.082Z,100414.13
2023-02-23T03:13:27.588Z,100406.19
2023-02-23T03:19:16.214Z,100400.69
2023-02-23T03:24:48.933Z,100378.13
2023-02-23T03:30:23.486Z,100371.38
2023-02-23T03:35:49.042Z,100342.03
2023-02-23T03:41:11.140Z,100318.38
2023-02-23T03:46:33.847Z,100315.94
2023-02-23T03:51:56.948Z,100312.22
2023-02-23T03:57:19.091Z,100303.56
2023-02-23T04:02:41.374Z,100301.47
2023-02-23T04:08:05.024Z,100301.00
2023-02-23T04:13:15.303Z,100294.53
2023-02-23T04:18:24.153Z,100285.38
2023-02-23T04:23:27.965Z,100323.81
2023-02-23T04:28:30.699Z,100316.47
2023-02-23T04:33:33.467Z,100306.47
2023-02-23T04:38:36.277Z,100317.78
2023-02-23T04:43:39.057Z,100293.41
2023-02-23T04:48:41.738Z,100298.41
2023-02-23T04:53:44.517Z,100273.38
2023-02-23T04:58:47.204Z,100279.88
2023-02-23T05:03:50.547Z,100257.94
2023-02-23T05:08:53.245Z,100260.13
2023-02-23T05:13:56.568Z,100213.63
2023-02-23T05:18:59.559Z,100222.06
2023-02-23T05:24:02.629Z,100241.78
2023-02-23T05:29:06.945Z,100214.44
2023-02-23T05:34:10.633Z,100194.81
2023-02-23T05:39:13.479Z,100171.22
2023-02-23T05:44:16.464Z,100195.50
2023-02-23T05:49:19.378Z,100204.50
2023-02-23T05:54:22.583Z,100205.53
2023-02-23T05:59:26.186Z,100192.50
2023-02-23T06:04:28.791Z,100188.63
2023-02-23T06:09:31.498Z,100199.88
2023-02-23T06:14:35.211Z,100195.63
2023-02-23T06:19:37.958Z,100210.56
2023-02-23T06:24:40.692Z,100197.06
2023-02-23T06:29:43.633Z,100170.72
2023-02-23T06:34:46.534Z,100171.97
2023-02-23T06:39:49.836Z,100179.38
2023-02-23T06:44:52.537Z,100178.34
2023-02-23T06:49:55.281Z,100176.44
2023-02-23T06:54:58.014Z,100170.28
2023-02-23T07:00:02.657Z,100165.22
2023-02-23T07:05:10.456Z,100157.22
2023-02-23T07:10:13.320Z,100155.09
2023-02-23T07:15:18.167Z,100142.50
2023-02-23T07:20:20.858Z,100037.50
2023-02-23T07:25:23.898Z,100141.81
2023-02-23T07:30:26.891Z,100143.31
2023-02-23T07:35:29.599Z,100163.97
2023-02-23T07:40:32.616Z,100150.41
2023-02-23T07:45:35.668Z,100147.41
2023-02-23T07:50:40.760Z,100155.91
2023-02-23T07:55:43.690Z,100121.66
2023-02-23T08:00:46.388Z,100142.34
2023-02-23T08:05:49.073Z,100121.50
2023-02-23T08:10:51.855Z,100132.38
2023-02-23T08:15:54.728Z,100121.38
2023-02-23T08:21:01.998Z,100130.59
2023-02-23T08:26:04.859Z,100123.09
2023-02-23T08:31:10.563Z,100116.28
2023-02-23T08:36:13.582Z,100146.91
2023-02-23T08:41:17.245Z,100142.25
2023-02-23T08:46:20.960Z,100166.03
2023-02-23T08:51:23.920Z,100170.41
2023-02-23T08:56:27.359Z,100169.56
2023-02-23T09:01:30.123Z,100171.38
2023-02-23T09:06:36.145Z,100177.38
2023-02-23T09:11:38.836Z,100189.50
2023-02-23T09:16:41.569Z,100188.56
2023-02-23T09:21:44.866Z,100190.06
2023-02-23T09:26:47.865Z,100185.88
2023-02-23T09:31:53.408Z,100196.59
2023-02-23T09:36:56.115Z,100196.84
2023-02-23T09:42:16.816Z,100197.34
2023-02-23T09:47:24.182Z,100174.25
2023-02-23T09:52:30.884Z,100205.28
2023-02-23T09:57:53.791Z,100202.91
2023-02-23T10:03:14.686Z,100206.00
2023-02-23T10:08:23.138Z,100203.38
2023-02-23T10:13:49.068Z,100207.34
2023-02-23T10:19:00.961Z,100212.94
2023-02-23T10:24:09.855Z,100217.44
2023-02-23T10:29:29.893Z,100207.97
2023-02-23T10:34:32.712Z,100209.94
2023-02-23T10:39:35.694Z,100222.19
2023-02-23T10:44:38.388Z,100233.34
2023-02-23T10:49:50.312Z,100226.84
2023-02-23T10:54:53.506Z,100240.09
2023-02-23T11:00:04.379Z,100256.13
2023-02-23T11:05:08.461Z,100267.31
2023-02-23T11:10:28.351Z,100286.41
2023-02-23T11:15:49.898Z,100298.34
2023-02-23T11:20:53.804Z,100287.66
2023-02-23T11:26:02.361Z,100295.06
2023-02-23T11:31:14.887Z,100305.53
2023-02-23T11:36:28.362Z,100317.22
2023-02-23T11:41:33.204Z,100320.53
2023-02-23T11:46:39.521Z,100325.56
2023-02-23T11:51:49.669Z,100327.09
2023-02-23T11:56:54.446Z,100323.53
2023-02-23T12:02:23.298Z,100313.88
2023-02-23T12:07:43.488Z,100309.91
2023-02-23T12:13:24.697Z,100318.69
2023-02-23T12:18:55.299Z,100320.16
2023-02-23T12:24:16.425Z,100303.22
2023-02-23T12:29:42.952Z,100299.16
2023-02-23T12:35:02.613Z,100327.66
2023-02-23T12:40:23.591Z,100328.34
2023-02-23T12:45:37.428Z,100316.56
2023-02-23T12:50:51.812Z,100319.25
2023-02-23T12:56:12.359Z,100339.56
2023-02-23T13:01:24.946Z,100351.28
2023-02-23T13:06:39.496Z,100359.88
2023-02-23T13:12:00.222Z,100363.75
2023-02-23T13:17:14.891Z,100369.00
2023-02-23T13:22:48.594Z,100371.28
2023-02-23T13:27:58.434Z,100374.72
2023-02-23T13:33:17.948Z,100361.47
2023-02-23T13:38:26.680Z,100388.31
2023-02-23T13:43:35.943Z,100380.50
2023-02-23T13:48:56.235Z,100400.03
2023-02-23T13:54:04.574Z,100368.91
2023-02-23T13:59:10.111Z,100389.69
2023-02-23T14:04:16.751Z,100410.78
2023-02-23T14:09:24.150Z,100425.03
2023-02-23T14:14:33.414Z,100405.66
2023-02-23T14:19:38.393Z,100405.66
2023-02-23T14:24:44.213Z,100400.44
2023-02-23T14:30:05.634Z,100408.28
2023-02-23T14:35:48.087Z,100399.34
2023-02-23T14:40:52.265Z,100409.63
2023-02-23T14:45:55.686Z,100404.66
2023-02-23T14:51:37.403Z,100403.06
2023-02-23T14:56:47.463Z,100359.53
2023-02-23T15:01:52.002Z,100396.25
2023-02-23T15:06:59.466Z,100386.38
2023-02-23T15:12:11.998Z,100395.13
2023-02-23T15:17:17.441Z,100395.00
2023-02-23T15:22:29.208Z,100368.03
2023-02-23T15:27:43.177Z,100388.91
2023-02-23T15:32:46.426Z,100376.53
2023-02-23T15:37:56.577Z,100388.53
2023-02-23T15:43:10.024Z,100378.06
2023-02-23T15:48:21.251Z,100382.50
2023-02-23T15:53:26.797Z,100381.06
2023-02-23T15:58:32.359Z,100345.50
2023-02-23T16:03:37.884Z,100339.84
2023-02-23T16:08:56.634Z,100360.63
2023-02-23T16:13:59.401Z,100350.22
2023-02-23T16:19:02.281Z,100360.28
2023-02-23T16:24:17.606Z,100350.38
2023-02-23T16:29:44.829Z,100350.75
2023-02-23T16:34:58.280Z,100352.75
2023-02-23T16:40:01.816Z,100353.66
2023-02-23T16:45:06.150Z,100350.91
2023-02-23T16:50:29.812Z,100347.78
2023-02-23T16:55:41.892Z,100318.44
2023-02-23T17:00:51.437Z,100334.28
2023-02-23T17:05:54.664Z,100321.00
2023-02-23T17:10:57.807Z,100319.41
2023-02-23T17:16:03.857Z,100313.69
2023-02-23T17:21:10.114Z,100315.66
2023-02-23T17:26:13.117Z,100311.50
2023-02-23T17:31:17.026Z,100309.91
2023-02-23T17:36:20.012Z,100283.50
2023-02-23T17:41:23.136Z,100295.88
2023-02-23T17:46:26.352Z,100265.94
2023-02-23T17:51:29.121Z,100244.66
2023-02-23T17:56:32.094Z,100284.59
2023-02-23T18:01:35.107Z,100281.22
2023-02-23T18:06:38.023Z,100275.91
2023-02-23T18:11:40.782Z,100271.88
2023-02-23T18:16:43.697Z,100276.34
2023-02-23T18:21:46.624Z,100269.59
2023-02-23T18:26:49.406Z,100287.34
2023-02-23T18:31:52.803Z,100280.69
2023-02-23T18:37:02.719Z,100278.13
2023-02-23T18:42:05.845Z,100279.97
2023-02-23T18:47:08.761Z,100277.81
2023-02-23T18:52:11.497Z,100253.59
2023-02-23T18:57:14.216Z,100248.41
2023-02-23T19:02:19.169Z,100253.00
2023-02-23T19:07:22.092Z,100250.78
2023-02-23T19:12:24.865Z,100231.16
2023-02-23T19:17:28.943Z,100229.97
2023-02-23T19:22:34.508Z,100197.38
2023-02-23T19:27:37.522Z,100192.34
2023-02-23T19:32:40.529Z,100206.19
2023-02-23T19:37:52.352Z,100206.94
2023-02-23T19:42:55.199Z,100173.19
2023-02-23T19:47:57.943Z,100196.59
2023-02-23T19:53:00.685Z,100215.06
2023-02-23T19:58:03.451Z,100224.09
2023-02-23T20:03:07.293Z,100221.56
2023-02-23T20:08:10.381Z,100205.28
2023-02-23T20:13:13.091Z,100178.88
2023-02-23T20:18:15.854Z,100189.63
2023-02-23T20:23:18.875Z,100190.28
2023-02-23T20:28:21.766Z,100179.34
2023-02-23T20:33:24.587Z,100181.53
2023-02-23T20:38:27.385Z,100175.47
2023-02-23T20:43:31.206Z,100161.59
2023-02-23T20:48:35.209Z,100174.19
2023-02-23T20:53:37.879Z,100158.66
2023-02-23T20:58:40.634Z,100135.31
2023-02-23T21:03:43.597Z,100114.38
2023-02-23T21:08:49.216Z,100112.03
2023-02-23T21:13:52.684Z,100093.13
2023-02-23T21:19:04.423Z,100073.34
2023-02-23T21:24:08.027Z,100066.91
2023-02-23T21:29:15.238Z,100061.28
2023-02-23T21:34:20.634Z,100028.50
2023-02-23T21:39:26.841Z,100026.06
2023-02-23T21:44:29.642Z,100017.09
2023-02-23T21:49:32.376Z,100025.44
2023-02-23T21:54:37.328Z,100018.06
2023-02-23T21:59:39.988Z,100002.28
2023-02-23T22:04:42.653Z,99990.94
2023-02-23T22:09:45.392Z,99980.53
2023-02-23T22:14:48.546Z,99981.84
2023-02-23T22:19:54.181Z,99970.28
2023-02-23T22:24:56.950Z,99965.41
2023-02-23T22:30:01.759Z,99941.91
2023-02-23T22:35:07.540Z,99954.69
2023-02-23T22:40:17.189Z,99953.75
2023-02-23T22:45:20.685Z,99938.56
2023-02-23T22:50:23.372Z,99942.69
2023-02-23T22:55:29.677Z,99925.97
2023-02-23T23:00:32.913Z,99893.53
2023-02-23T23:05:35.947Z,99930.09
2023-02-23T23:10:38.651Z,99926.50
2023-02-23T23:15:43.042Z,99912.63
2023-02-23T23:20:45.700Z,99899.06
2023-02-23T23:25:49.245Z,99911.63
2023-02-23T23:30:52.575Z,99896.59
2023-02-23T23:35:55.385Z,99905.59
2023-02-23T23:41:10.314Z,99882.59
2023-02-23T23:46:24.907Z,99873.38
2023-02-23T23:51:30.887Z,99885.13
2023-02-23T23:56:36.104Z,99897.94
